sensor_id;sensor_type;location;lat;lon;timestamp;P1;durP1;ratioP1;P2;durP2;ratioP2
82028;SDS011;71590;52.216;13.448;2024-02-04T00:01:53;10.10;;;3.20;;
82028;SDS011;71590;52.216;13.448;2024-02-04T00:04:20;7.00;;;2.60;;
82028;SDS011;71590;52.216;13.448;2024-02-04T00:06:46;8.23;;;2.70;;
82028;SDS011;71590;52.216;13.448;2024-02-04T00:09:13;9.83;;;2.43;;
82028;SDS011;71590;52.216;13.448;2024-02-04T00:11:39;12.70;;;3.30;;
82028;SDS011;71590;52.216;13.448;2024-02-04T00:14:06;11.80;;;2.97;;
82028;SDS011;71590;52.216;13.448;2024-02-04T00:16:32;5.40;;;2.43;;
82028;SDS011;71590;52.216;13.448;2024-02-04T00:18:58;10.47;;;3.00;;
82028;SDS011;71590;52.216;13.448;2024-02-04T00:21:25;6.03;;;2.43;;
82028;SDS011;71590;52.216;13.448;2024-02-04T00:23:51;9.17;;;3.27;;
82028;SDS011;71590;52.216;13.448;2024-02-04T00:26:18;7.27;;;2.50;;
82028;SDS011;71590;52.216;13.448;2024-02-04T00:28:44;10.17;;;2.83;;
82028;SDS011;71590;52.216;13.448;2024-02-04T00:31:11;7.57;;;2.57;;
82028;SDS011;71590;52.216;13.448;2024-02-04T00:33:37;9.97;;;3.00;;
82028;SDS011;71590;52.216;13.448;2024-02-04T00:36:04;8.20;;;2.63;;
82028;SDS011;71590;52.216;13.448;2024-02-04T00:38:30;7.87;;;2.50;;
82028;SDS011;71590;52.216;13.448;2024-02-04T00:40:57;8.47;;;3.20;;
82028;SDS011;71590;52.216;13.448;2024-02-04T00:43:23;13.63;;;3.00;;
82028;SDS011;71590;52.216;13.448;2024-02-04T00:45:49;8.83;;;2.57;;
82028;SDS011;71590;52.216;13.448;2024-02-04T00:48:16;6.60;;;2.20;;
82028;SDS011;71590;52.216;13.448;2024-02-04T00:50:43;8.07;;;2.83;;
82028;SDS011;71590;52.216;13.448;2024-02-04T00:53:09;9.53;;;2.80;;
82028;SDS011;71590;52.216;13.448;2024-02-04T00:55:35;10.40;;;2.67;;
82028;SDS011;71590;52.216;13.448;2024-02-04T00:58:02;5.17;;;2.40;;
82028;SDS011;71590;52.216;13.448;2024-02-04T01:00:29;8.97;;;3.10;;
82028;SDS011;71590;52.216;13.448;2024-02-04T01:02:56;11.37;;;3.07;;
82028;SDS011;71590;52.216;13.448;2024-02-04T01:05:22;6.73;;;2.80;;
82028;SDS011;71590;52.216;13.448;2024-02-04T01:07:49;8.00;;;2.70;;
82028;SDS011;71590;52.216;13.448;2024-02-04T01:10:15;7.50;;;2.80;;
82028;SDS011;71590;52.216;13.448;2024-02-04T01:12:42;7.13;;;2.97;;
82028;SDS011;71590;52.216;13.448;2024-02-04T01:15:08;10.03;;;3.57;;
82028;SDS011;71590;52.216;13.448;2024-02-04T01:17:35;11.43;;;3.40;;
82028;SDS011;71590;52.216;13.448;2024-02-04T01:20:01;6.33;;;2.87;;
82028;SDS011;71590;52.216;13.448;2024-02-04T01:22:28;9.93;;;3.00;;
82028;SDS011;71590;52.216;13.448;2024-02-04T01:24:54;9.77;;;2.73;;
82028;SDS011;71590;52.216;13.448;2024-02-04T01:27:21;10.80;;;2.80;;
82028;SDS011;71590;52.216;13.448;2024-02-04T01:29:47;13.67;;;3.20;;
82028;SDS011;71590;52.216;13.448;2024-02-04T01:32:14;7.77;;;2.37;;
82028;SDS011;71590;52.216;13.448;2024-02-04T01:34:41;7.67;;;2.70;;
82028;SDS011;71590;52.216;13.448;2024-02-04T01:37:07;8.33;;;2.40;;
82028;SDS011;71590;52.216;13.448;2024-02-04T01:39:34;9.53;;;2.90;;
82028;SDS011;71590;52.216;13.448;2024-02-04T01:42:01;10.43;;;3.03;;
82028;SDS011;71590;52.216;13.448;2024-02-04T01:44:27;7.10;;;2.43;;
82028;SDS011;71590;52.216;13.448;2024-02-04T01:46:54;10.67;;;2.73;;
82028;SDS011;71590;52.216;13.448;2024-02-04T01:49:21;11.17;;;3.17;;
82028;SDS011;71590;52.216;13.448;2024-02-04T01:51:47;7.90;;;2.50;;
82028;SDS011;71590;52.216;13.448;2024-02-04T01:54:14;11.43;;;3.17;;
82028;SDS011;71590;52.216;13.448;2024-02-04T01:56:41;8.90;;;2.83;;
82028;SDS011;71590;52.216;13.448;2024-02-04T01:59:08;8.57;;;3.03;;
82028;SDS011;71590;52.216;13.448;2024-02-04T02:01:35;10.07;;;3.13;;
82028;SDS011;71590;52.216;13.448;2024-02-04T02:04:02;11.30;;;3.80;;
82028;SDS011;71590;52.216;13.448;2024-02-04T02:06:29;8.93;;;3.10;;
82028;SDS011;71590;52.216;13.448;2024-02-04T02:08:56;10.13;;;3.73;;
82028;SDS011;71590;52.216;13.448;2024-02-04T02:11:32;8.23;;;3.13;;
82028;SDS011;71590;52.216;13.448;2024-02-04T02:14:00;9.93;;;2.80;;
82028;SDS011;71590;52.216;13.448;2024-02-04T02:16:27;8.07;;;3.27;;
82028;SDS011;71590;52.216;13.448;2024-02-04T02:18:57;13.73;;;4.30;;
82028;SDS011;71590;52.216;13.448;2024-02-04T02:21:44;8.87;;;3.27;;
82028;SDS011;71590;52.216;13.448;2024-02-04T02:24:56;8.63;;;3.20;;
82028;SDS011;71590;52.216;13.448;2024-02-04T02:27:03;11.77;;;3.63;;
82028;SDS011;71590;52.216;13.448;2024-02-04T02:29:32;8.20;;;3.30;;
82028;SDS011;71590;52.216;13.448;2024-02-04T02:32:02;7.77;;;3.20;;
82028;SDS011;71590;52.216;13.448;2024-02-04T02:34:30;12.77;;;3.23;;
82028;SDS011;71590;52.216;13.448;2024-02-04T02:37:09;12.13;;;4.03;;
82028;SDS011;71590;52.216;13.448;2024-02-04T02:39:45;7.33;;;3.43;;
82028;SDS011;71590;52.216;13.448;2024-02-04T02:42:14;7.50;;;3.03;;
82028;SDS011;71590;52.216;13.448;2024-02-04T02:44:42;10.07;;;3.07;;
82028;SDS011;71590;52.216;13.448;2024-02-04T02:47:09;6.90;;;2.83;;
82028;SDS011;71590;52.216;13.448;2024-02-04T02:49:36;12.23;;;3.93;;
82028;SDS011;71590;52.216;13.448;2024-02-04T02:52:03;10.00;;;3.23;;
82028;SDS011;71590;52.216;13.448;2024-02-04T02:54:30;7.60;;;3.47;;
82028;SDS011;71590;52.216;13.448;2024-02-04T02:56:57;10.43;;;3.87;;
82028;SDS011;71590;52.216;13.448;2024-02-04T02:59:23;12.90;;;3.50;;
82028;SDS011;71590;52.216;13.448;2024-02-04T03:01:50;10.73;;;3.93;;
82028;SDS011;71590;52.216;13.448;2024-02-04T03:04:16;9.33;;;3.87;;
82028;SDS011;71590;52.216;13.448;2024-02-04T03:06:43;6.90;;;3.73;;
82028;SDS011;71590;52.216;13.448;2024-02-04T03:09:09;11.67;;;3.43;;
82028;SDS011;71590;52.216;13.448;2024-02-04T03:11:36;9.57;;;3.30;;
82028;SDS011;71590;52.216;13.448;2024-02-04T03:14:04;11.90;;;3.33;;
82028;SDS011;71590;52.216;13.448;2024-02-04T03:16:30;14.37;;;4.23;;
82028;SDS011;71590;52.216;13.448;2024-02-04T03:18:56;13.07;;;3.40;;
82028;SDS011;71590;52.216;13.448;2024-02-04T03:21:23;7.10;;;3.50;;
82028;SDS011;71590;52.216;13.448;2024-02-04T03:23:49;6.00;;;2.97;;
82028;SDS011;71590;52.216;13.448;2024-02-04T03:26:16;11.80;;;3.77;;
82028;SDS011;71590;52.216;13.448;2024-02-04T03:28:46;9.43;;;3.60;;
82028;SDS011;71590;52.216;13.448;2024-02-04T03:31:19;9.60;;;3.40;;
82028;SDS011;71590;52.216;13.448;2024-02-04T03:33:45;9.50;;;3.37;;
82028;SDS011;71590;52.216;13.448;2024-02-04T03:36:12;6.97;;;3.40;;
82028;SDS011;71590;52.216;13.448;2024-02-04T03:38:40;10.63;;;3.67;;
82028;SDS011;71590;52.216;13.448;2024-02-04T03:41:07;8.80;;;3.10;;
82028;SDS011;71590;52.216;13.448;2024-02-04T03:43:35;9.57;;;3.33;;
82028;SDS011;71590;52.216;13.448;2024-02-04T03:46:02;10.23;;;3.57;;
82028;SDS011;71590;52.216;13.448;2024-02-04T03:48:29;7.80;;;3.30;;
82028;SDS011;71590;52.216;13.448;2024-02-04T03:50:55;10.63;;;2.87;;
82028;SDS011;71590;52.216;13.448;2024-02-04T03:53:22;4.87;;;2.77;;
82028;SDS011;71590;52.216;13.448;2024-02-04T03:55:51;8.70;;;3.17;;
82028;SDS011;71590;52.216;13.448;2024-02-04T03:58:19;7.53;;;2.90;;
82028;SDS011;71590;52.216;13.448;2024-02-04T04:00:46;6.70;;;2.63;;
82028;SDS011;71590;52.216;13.448;2024-02-04T04:03:12;8.17;;;3.30;;
82028;SDS011;71590;52.216;13.448;2024-02-04T04:05:39;9.47;;;2.93;;
82028;SDS011;71590;52.216;13.448;2024-02-04T04:08:05;5.83;;;2.63;;
82028;SDS011;71590;52.216;13.448;2024-02-04T04:10:32;11.73;;;3.13;;
82028;SDS011;71590;52.216;13.448;2024-02-04T04:12:59;6.83;;;2.80;;
82028;SDS011;71590;52.216;13.448;2024-02-04T04:15:26;7.60;;;3.10;;
82028;SDS011;71590;52.216;13.448;2024-02-04T04:17:52;8.47;;;2.63;;
82028;SDS011;71590;52.216;13.448;2024-02-04T04:20:19;6.43;;;2.73;;
82028;SDS011;71590;52.216;13.448;2024-02-04T04:22:45;7.63;;;2.83;;
82028;SDS011;71590;52.216;13.448;2024-02-04T04:25:12;9.83;;;3.07;;
82028;SDS011;71590;52.216;13.448;2024-02-04T04:27:40;10.30;;;3.10;;
82028;SDS011;71590;52.216;13.448;2024-02-04T04:30:06;7.20;;;2.57;;
82028;SDS011;71590;52.216;13.448;2024-02-04T04:32:35;9.00;;;3.20;;
82028;SDS011;71590;52.216;13.448;2024-02-04T04:35:01;10.27;;;2.60;;
82028;SDS011;71590;52.216;13.448;2024-02-04T04:37:28;9.40;;;2.83;;
82028;SDS011;71590;52.216;13.448;2024-02-04T04:39:54;5.63;;;2.37;;
82028;SDS011;71590;52.216;13.448;2024-02-04T04:42:21;6.43;;;2.87;;
82028;SDS011;71590;52.216;13.448;2024-02-04T04:45:14;7.17;;;2.83;;
82028;SDS011;71590;52.216;13.448;2024-02-04T04:47:41;8.70;;;2.90;;
82028;SDS011;71590;52.216;13.448;2024-02-04T04:50:08;11.23;;;2.40;;
82028;SDS011;71590;52.216;13.448;2024-02-04T04:52:34;7.83;;;2.33;;
82028;SDS011;71590;52.216;13.448;2024-02-04T04:55:02;6.97;;;2.50;;
82028;SDS011;71590;52.216;13.448;2024-02-04T04:57:29;5.90;;;2.83;;
82028;SDS011;71590;52.216;13.448;2024-02-04T04:59:55;6.53;;;2.70;;
82028;SDS011;71590;52.216;13.448;2024-02-04T05:02:24;9.53;;;3.00;;
82028;SDS011;71590;52.216;13.448;2024-02-04T05:04:51;5.77;;;2.80;;
82028;SDS011;71590;52.216;13.448;2024-02-04T05:07:17;7.17;;;3.07;;
82028;SDS011;71590;52.216;13.448;2024-02-04T05:09:44;7.80;;;2.90;;
82028;SDS011;71590;52.216;13.448;2024-02-04T05:12:11;5.40;;;2.80;;
82028;SDS011;71590;52.216;13.448;2024-02-04T05:14:38;8.73;;;2.80;;
82028;SDS011;71590;52.216;13.448;2024-02-04T05:17:04;4.57;;;2.87;;
82028;SDS011;71590;52.216;13.448;2024-02-04T05:19:31;9.00;;;2.93;;
82028;SDS011;71590;52.216;13.448;2024-02-04T05:21:58;8.70;;;3.07;;
82028;SDS011;71590;52.216;13.448;2024-02-04T05:24:24;7.57;;;3.27;;
82028;SDS011;71590;52.216;13.448;2024-02-04T05:26:51;5.67;;;2.83;;
82028;SDS011;71590;52.216;13.448;2024-02-04T05:29:17;8.13;;;3.13;;
82028;SDS011;71590;52.216;13.448;2024-02-04T05:31:43;5.33;;;2.70;;
82028;SDS011;71590;52.216;13.448;2024-02-04T05:34:10;9.20;;;2.87;;
82028;SDS011;71590;52.216;13.448;2024-02-04T05:36:37;7.03;;;3.23;;
82028;SDS011;71590;52.216;13.448;2024-02-04T05:39:14;7.53;;;2.80;;
82028;SDS011;71590;52.216;13.448;2024-02-04T05:41:41;8.63;;;2.63;;
82028;SDS011;71590;52.216;13.448;2024-02-04T05:44:07;7.63;;;2.97;;
82028;SDS011;71590;52.216;13.448;2024-02-04T05:46:35;6.27;;;2.60;;
82028;SDS011;71590;52.216;13.448;2024-02-04T05:49:02;8.13;;;2.90;;
82028;SDS011;71590;52.216;13.448;2024-02-04T05:51:31;9.97;;;3.00;;
82028;SDS011;71590;52.216;13.448;2024-02-04T05:53:57;8.03;;;2.63;;
82028;SDS011;71590;52.216;13.448;2024-02-04T05:56:24;6.70;;;2.70;;
82028;SDS011;71590;52.216;13.448;2024-02-04T05:58:50;8.80;;;3.20;;
82028;SDS011;71590;52.216;13.448;2024-02-04T06:01:17;5.80;;;3.53;;
82028;SDS011;71590;52.216;13.448;2024-02-04T06:03:43;9.13;;;3.10;;
82028;SDS011;71590;52.216;13.448;2024-02-04T06:06:17;8.37;;;2.97;;
82028;SDS011;71590;52.216;13.448;2024-02-04T06:08:46;6.20;;;2.93;;
82028;SDS011;71590;52.216;13.448;2024-02-04T06:11:13;11.23;;;3.63;;
82028;SDS011;71590;52.216;13.448;2024-02-04T06:13:40;6.33;;;3.10;;
82028;SDS011;71590;52.216;13.448;2024-02-04T06:16:07;4.73;;;3.20;;
82028;SDS011;71590;52.216;13.448;2024-02-04T06:18:37;7.63;;;3.67;;
82028;SDS011;71590;52.216;13.448;2024-02-04T06:21:07;10.37;;;4.10;;
82028;SDS011;71590;52.216;13.448;2024-02-04T06:23:33;7.40;;;3.83;;
82028;SDS011;71590;52.216;13.448;2024-02-04T06:26:00;6.80;;;3.23;;
82028;SDS011;71590;52.216;13.448;2024-02-04T06:28:27;14.90;;;4.47;;
82028;SDS011;71590;52.216;13.448;2024-02-04T06:30:53;10.40;;;3.77;;
82028;SDS011;71590;52.216;13.448;2024-02-04T06:33:20;8.83;;;4.40;;
82028;SDS011;71590;52.216;13.448;2024-02-04T06:35:47;7.23;;;4.00;;
82028;SDS011;71590;52.216;13.448;2024-02-04T06:38:13;9.43;;;4.33;;
82028;SDS011;71590;52.216;13.448;2024-02-04T06:40:40;8.17;;;4.47;;
82028;SDS011;71590;52.216;13.448;2024-02-04T06:43:06;11.10;;;4.70;;
82028;SDS011;71590;52.216;13.448;2024-02-04T06:45:32;12.63;;;5.37;;
82028;SDS011;71590;52.216;13.448;2024-02-04T06:47:59;8.67;;;5.23;;
82028;SDS011;71590;52.216;13.448;2024-02-04T06:50:25;10.60;;;5.37;;
82028;SDS011;71590;52.216;13.448;2024-02-04T06:52:52;10.20;;;5.17;;
82028;SDS011;71590;52.216;13.448;2024-02-04T06:55:18;14.63;;;6.07;;
82028;SDS011;71590;52.216;13.448;2024-02-04T06:57:45;12.53;;;5.40;;
82028;SDS011;71590;52.216;13.448;2024-02-04T07:00:11;11.83;;;5.43;;
82028;SDS011;71590;52.216;13.448;2024-02-04T07:02:38;8.47;;;5.20;;
82028;SDS011;71590;52.216;13.448;2024-02-04T07:05:05;9.57;;;5.37;;
82028;SDS011;71590;52.216;13.448;2024-02-04T07:07:31;10.30;;;6.10;;
82028;SDS011;71590;52.216;13.448;2024-02-04T07:09:58;9.63;;;5.87;;
82028;SDS011;71590;52.216;13.448;2024-02-04T07:12:25;7.90;;;5.53;;
82028;SDS011;71590;52.216;13.448;2024-02-04T07:14:52;8.13;;;4.57;;
82028;SDS011;71590;52.216;13.448;2024-02-04T07:17:18;8.10;;;4.73;;
82028;SDS011;71590;52.216;13.448;2024-02-04T07:19:44;8.90;;;5.53;;
82028;SDS011;71590;52.216;13.448;2024-02-04T07:22:11;11.03;;;5.47;;
82028;SDS011;71590;52.216;13.448;2024-02-04T07:24:37;14.57;;;5.40;;
82028;SDS011;71590;52.216;13.448;2024-02-04T07:27:04;9.57;;;5.40;;
82028;SDS011;71590;52.216;13.448;2024-02-04T07:29:30;9.90;;;4.37;;
82028;SDS011;71590;52.216;13.448;2024-02-04T07:31:57;7.43;;;4.87;;
82028;SDS011;71590;52.216;13.448;2024-02-04T07:34:24;8.93;;;4.90;;
82028;SDS011;71590;52.216;13.448;2024-02-04T07:36:51;9.67;;;4.73;;
82028;SDS011;71590;52.216;13.448;2024-02-04T07:39:19;8.83;;;4.47;;
82028;SDS011;71590;52.216;13.448;2024-02-04T07:41:45;12.33;;;4.37;;
82028;SDS011;71590;52.216;13.448;2024-02-04T07:44:12;9.83;;;3.77;;
82028;SDS011;71590;52.216;13.448;2024-02-04T07:46:39;6.67;;;3.83;;
82028;SDS011;71590;52.216;13.448;2024-02-04T07:49:06;5.73;;;3.07;;
82028;SDS011;71590;52.216;13.448;2024-02-04T07:51:32;6.90;;;3.03;;
82028;SDS011;71590;52.216;13.448;2024-02-04T07:54:01;7.60;;;3.30;;
82028;SDS011;71590;52.216;13.448;2024-02-04T07:56:27;7.77;;;3.20;;
82028;SDS011;71590;52.216;13.448;2024-02-04T07:58:54;9.37;;;3.53;;
82028;SDS011;71590;52.216;13.448;2024-02-04T08:01:20;7.03;;;3.30;;
82028;SDS011;71590;52.216;13.448;2024-02-04T08:03:47;6.87;;;3.57;;
82028;SDS011;71590;52.216;13.448;2024-02-04T08:06:14;14.20;;;3.63;;
82028;SDS011;71590;52.216;13.448;2024-02-04T08:08:40;9.40;;;3.13;;
82028;SDS011;71590;52.216;13.448;2024-02-04T08:11:08;7.20;;;3.00;;
82028;SDS011;71590;52.216;13.448;2024-02-04T08:13:35;8.73;;;3.20;;
82028;SDS011;71590;52.216;13.448;2024-02-04T08:16:02;9.93;;;3.30;;
82028;SDS011;71590;52.216;13.448;2024-02-04T08:18:28;6.10;;;2.93;;
82028;SDS011;71590;52.216;13.448;2024-02-04T08:20:55;6.60;;;2.77;;
82028;SDS011;71590;52.216;13.448;2024-02-04T08:23:21;6.10;;;3.20;;
82028;SDS011;71590;52.216;13.448;2024-02-04T08:25:48;5.77;;;2.93;;
82028;SDS011;71590;52.216;13.448;2024-02-04T08:28:16;7.10;;;2.80;;
82028;SDS011;71590;52.216;13.448;2024-02-04T08:30:42;9.23;;;3.30;;
82028;SDS011;71590;52.216;13.448;2024-02-04T08:33:09;5.33;;;2.70;;
82028;SDS011;71590;52.216;13.448;2024-02-04T08:35:35;10.00;;;2.87;;
82028;SDS011;71590;52.216;13.448;2024-02-04T08:38:02;7.20;;;2.83;;
82028;SDS011;71590;52.216;13.448;2024-02-04T08:40:28;9.17;;;2.97;;
82028;SDS011;71590;52.216;13.448;2024-02-04T08:42:55;9.23;;;2.90;;
82028;SDS011;71590;52.216;13.448;2024-02-04T08:45:21;10.37;;;2.80;;
82028;SDS011;71590;52.216;13.448;2024-02-04T08:47:47;8.07;;;2.30;;
82028;SDS011;71590;52.216;13.448;2024-02-04T08:50:14;5.03;;;2.00;;
82028;SDS011;71590;52.216;13.448;2024-02-04T08:52:40;6.13;;;2.50;;
82028;SDS011;71590;52.216;13.448;2024-02-04T08:55:07;8.90;;;2.70;;
82028;SDS011;71590;52.216;13.448;2024-02-04T08:57:35;7.33;;;2.80;;
82028;SDS011;71590;52.216;13.448;2024-02-04T09:00:02;7.50;;;2.00;;
82028;SDS011;71590;52.216;13.448;2024-02-04T09:02:28;8.53;;;2.40;;
82028;SDS011;71590;52.216;13.448;2024-02-04T09:04:55;6.50;;;2.20;;
82028;SDS011;71590;52.216;13.448;2024-02-04T09:07:21;7.27;;;2.20;;
82028;SDS011;71590;52.216;13.448;2024-02-04T09:09:48;5.90;;;2.13;;
82028;SDS011;71590;52.216;13.448;2024-02-04T09:12:14;4.53;;;1.97;;
82028;SDS011;71590;52.216;13.448;2024-02-04T09:14:41;9.47;;;2.40;;
82028;SDS011;71590;52.216;13.448;2024-02-04T09:17:07;8.37;;;2.10;;
82028;SDS011;71590;52.216;13.448;2024-02-04T09:19:34;7.97;;;2.50;;
82028;SDS011;71590;52.216;13.448;2024-02-04T09:22:05;6.03;;;1.83;;
82028;SDS011;71590;52.216;13.448;2024-02-04T09:24:32;4.83;;;2.07;;
82028;SDS011;71590;52.216;13.448;2024-02-04T09:26:59;8.97;;;2.60;;
82028;SDS011;71590;52.216;13.448;2024-02-04T09:29:25;3.77;;;2.10;;
82028;SDS011;71590;52.216;13.448;2024-02-04T09:31:52;6.60;;;2.30;;
82028;SDS011;71590;52.216;13.448;2024-02-04T09:34:20;4.73;;;1.80;;
82028;SDS011;71590;52.216;13.448;2024-02-04T09:36:48;7.30;;;2.50;;
82028;SDS011;71590;52.216;13.448;2024-02-04T09:39:14;6.87;;;2.27;;
82028;SDS011;71590;52.216;13.448;2024-02-04T09:41:42;5.63;;;2.00;;
82028;SDS011;71590;52.216;13.448;2024-02-04T09:44:09;6.37;;;2.40;;
82028;SDS011;71590;52.216;13.448;2024-02-04T09:46:35;6.30;;;2.23;;
82028;SDS011;71590;52.216;13.448;2024-02-04T09:49:02;5.07;;;2.63;;
82028;SDS011;71590;52.216;13.448;2024-02-04T09:51:31;9.87;;;3.03;;
82028;SDS011;71590;52.216;13.448;2024-02-04T09:53:59;4.43;;;2.80;;
82028;SDS011;71590;52.216;13.448;2024-02-04T09:56:28;7.50;;;2.63;;
82028;SDS011;71590;52.216;13.448;2024-02-04T09:58:56;5.90;;;3.20;;
82028;SDS011;71590;52.216;13.448;2024-02-04T10:01:23;4.93;;;2.30;;
82028;SDS011;71590;52.216;13.448;2024-02-04T10:03:50;5.50;;;2.80;;
82028;SDS011;71590;52.216;13.448;2024-02-04T10:06:16;5.27;;;2.07;;
82028;SDS011;71590;52.216;13.448;2024-02-04T10:08:43;3.80;;;2.43;;
82028;SDS011;71590;52.216;13.448;2024-02-04T10:11:10;6.97;;;2.40;;
82028;SDS011;71590;52.216;13.448;2024-02-04T10:13:46;6.27;;;2.77;;
82028;SDS011;71590;52.216;13.448;2024-02-04T10:16:16;5.03;;;2.50;;
82028;SDS011;71590;52.216;13.448;2024-02-04T10:18:46;8.77;;;2.70;;
82028;SDS011;71590;52.216;13.448;2024-02-04T10:21:14;4.20;;;2.60;;
82028;SDS011;71590;52.216;13.448;2024-02-04T10:23:40;5.37;;;2.47;;
82028;SDS011;71590;52.216;13.448;2024-02-04T10:26:07;5.87;;;2.90;;
82028;SDS011;71590;52.216;13.448;2024-02-04T10:28:33;4.97;;;2.57;;
82028;SDS011;71590;52.216;13.448;2024-02-04T10:31:00;7.97;;;2.97;;
82028;SDS011;71590;52.216;13.448;2024-02-04T10:33:26;5.70;;;3.00;;
82028;SDS011;71590;52.216;13.448;2024-02-04T10:35:56;5.60;;;2.73;;
82028;SDS011;71590;52.216;13.448;2024-02-04T10:38:22;6.53;;;2.60;;
82028;SDS011;71590;52.216;13.448;2024-02-04T10:40:52;7.00;;;2.47;;
82028;SDS011;71590;52.216;13.448;2024-02-04T10:43:19;5.47;;;2.23;;
82028;SDS011;71590;52.216;13.448;2024-02-04T10:45:46;8.13;;;2.50;;
82028;SDS011;71590;52.216;13.448;2024-02-04T10:48:15;4.33;;;2.50;;
82028;SDS011;71590;52.216;13.448;2024-02-04T10:50:41;4.70;;;2.77;;
82028;SDS011;71590;52.216;13.448;2024-02-04T10:53:10;6.07;;;4.07;;
82028;SDS011;71590;52.216;13.448;2024-02-04T10:55:39;5.47;;;2.60;;
82028;SDS011;71590;52.216;13.448;2024-02-04T10:58:06;3.27;;;1.70;;
82028;SDS011;71590;52.216;13.448;2024-02-04T11:00:33;3.07;;;1.50;;
82028;SDS011;71590;52.216;13.448;2024-02-04T11:03:00;4.73;;;1.97;;
82028;SDS011;71590;52.216;13.448;2024-02-04T11:05:27;3.27;;;1.37;;
82028;SDS011;71590;52.216;13.448;2024-02-04T11:07:55;6.43;;;1.90;;
82028;SDS011;71590;52.216;13.448;2024-02-04T11:10:21;3.73;;;2.07;;
82028;SDS011;71590;52.216;13.448;2024-02-04T11:12:48;5.83;;;1.87;;
82028;SDS011;71590;52.216;13.448;2024-02-04T11:15:15;5.37;;;1.97;;
82028;SDS011;71590;52.216;13.448;2024-02-04T11:17:51;4.27;;;1.43;;
82028;SDS011;71590;52.216;13.448;2024-02-04T11:20:35;6.43;;;1.73;;
82028;SDS011;71590;52.216;13.448;2024-02-04T11:25:52;4.73;;;1.80;;
82028;SDS011;71590;52.216;13.448;2024-02-04T11:28:24;5.27;;;1.90;;
82028;SDS011;71590;52.216;13.448;2024-02-04T11:30:52;4.73;;;1.87;;
82028;SDS011;71590;52.216;13.448;2024-02-04T11:33:19;5.07;;;1.97;;
82028;SDS011;71590;52.216;13.448;2024-02-04T11:35:47;3.23;;;1.83;;
82028;SDS011;71590;52.216;13.448;2024-02-04T11:38:17;5.00;;;2.10;;
82028;SDS011;71590;52.216;13.448;2024-02-04T11:40:45;5.83;;;2.17;;
82028;SDS011;71590;52.216;13.448;2024-02-04T11:43:12;3.50;;;1.63;;
82028;SDS011;71590;52.216;13.448;2024-02-04T11:45:39;4.63;;;1.93;;
82028;SDS011;71590;52.216;13.448;2024-02-04T11:48:09;6.37;;;1.90;;
82028;SDS011;71590;52.216;13.448;2024-02-04T11:50:37;2.67;;;1.23;;
82028;SDS011;71590;52.216;13.448;2024-02-04T11:53:04;4.13;;;1.70;;
82028;SDS011;71590;52.216;13.448;2024-02-04T11:55:31;4.23;;;1.57;;
82028;SDS011;71590;52.216;13.448;2024-02-04T11:57:58;4.40;;;1.40;;
82028;SDS011;71590;52.216;13.448;2024-02-04T12:00:25;4.87;;;1.80;;
82028;SDS011;71590;52.216;13.448;2024-02-04T12:03:02;6.13;;;1.80;;
82028;SDS011;71590;52.216;13.448;2024-02-04T12:05:35;3.67;;;1.80;;
82028;SDS011;71590;52.216;13.448;2024-02-04T12:08:03;5.27;;;1.87;;
82028;SDS011;71590;52.216;13.448;2024-02-04T12:10:31;4.97;;;1.50;;
82028;SDS011;71590;52.216;13.448;2024-02-04T12:13:05;5.10;;;1.93;;
82028;SDS011;71590;52.216;13.448;2024-02-04T12:15:32;4.90;;;2.23;;
82028;SDS011;71590;52.216;13.448;2024-02-04T12:18:06;5.67;;;1.53;;
82028;SDS011;71590;52.216;13.448;2024-02-04T12:20:33;3.70;;;1.67;;
82028;SDS011;71590;52.216;13.448;2024-02-04T12:23:02;3.83;;;1.50;;
82028;SDS011;71590;52.216;13.448;2024-02-04T12:25:28;4.00;;;1.70;;
82028;SDS011;71590;52.216;13.448;2024-02-04T12:28:00;6.20;;;1.80;;
82028;SDS011;71590;52.216;13.448;2024-02-04T12:30:29;8.97;;;1.90;;
82028;SDS011;71590;52.216;13.448;2024-02-04T12:32:56;3.27;;;1.53;;
82028;SDS011;71590;52.216;13.448;2024-02-04T12:35:23;4.87;;;1.53;;
82028;SDS011;71590;52.216;13.448;2024-02-04T12:37:52;5.60;;;1.40;;
82028;SDS011;71590;52.216;13.448;2024-02-04T12:40:22;5.67;;;1.50;;
82028;SDS011;71590;52.216;13.448;2024-02-04T12:42:56;4.53;;;1.60;;
82028;SDS011;71590;52.216;13.448;2024-02-04T12:45:27;6.37;;;2.43;;
82028;SDS011;71590;52.216;13.448;2024-02-04T12:47:54;9.43;;;3.10;;
82028;SDS011;71590;52.216;13.448;2024-02-04T12:50:21;9.20;;;4.13;;
82028;SDS011;71590;52.216;13.448;2024-02-04T12:52:48;7.83;;;3.53;;
82028;SDS011;71590;52.216;13.448;2024-02-04T12:55:25;7.20;;;3.03;;
82028;SDS011;71590;52.216;13.448;2024-02-04T12:58:01;6.93;;;2.20;;
82028;SDS011;71590;52.216;13.448;2024-02-04T13:00:27;4.60;;;2.03;;
82028;SDS011;71590;52.216;13.448;2024-02-04T13:02:55;5.73;;;2.03;;
82028;SDS011;71590;52.216;13.448;2024-02-04T13:05:22;5.73;;;2.53;;
82028;SDS011;71590;52.216;13.448;2024-02-04T13:07:55;6.17;;;2.27;;
82028;SDS011;71590;52.216;13.448;2024-02-04T13:10:22;5.73;;;2.43;;
82028;SDS011;71590;52.216;13.448;2024-02-04T13:13:02;5.63;;;2.10;;
82028;SDS011;71590;52.216;13.448;2024-02-04T13:15:30;5.63;;;1.97;;
82028;SDS011;71590;52.216;13.448;2024-02-04T13:17:56;6.83;;;2.40;;
82028;SDS011;71590;52.216;13.448;2024-02-04T13:20:23;4.63;;;1.90;;
82028;SDS011;71590;52.216;13.448;2024-02-04T13:22:50;5.30;;;1.80;;
82028;SDS011;71590;52.216;13.448;2024-02-04T13:25:17;7.30;;;2.00;;
82028;SDS011;71590;52.216;13.448;2024-02-04T13:27:44;2.97;;;1.63;;
82028;SDS011;71590;52.216;13.448;2024-02-04T13:30:17;3.83;;;1.67;;
82028;SDS011;71590;52.216;13.448;2024-02-04T13:32:52;5.13;;;2.00;;
82028;SDS011;71590;52.216;13.448;2024-02-04T13:35:19;4.93;;;2.03;;
82028;SDS011;71590;52.216;13.448;2024-02-04T13:37:47;7.93;;;2.10;;
82028;SDS011;71590;52.216;13.448;2024-02-04T13:40:14;7.67;;;2.40;;
82028;SDS011;71590;52.216;13.448;2024-02-04T13:42:41;6.20;;;2.40;;
82028;SDS011;71590;52.216;13.448;2024-02-04T13:45:08;4.17;;;1.80;;
82028;SDS011;71590;52.216;13.448;2024-02-04T13:47:35;3.57;;;2.13;;
82028;SDS011;71590;52.216;13.448;2024-02-04T13:50:01;3.13;;;1.70;;
82028;SDS011;71590;52.216;13.448;2024-02-04T13:52:29;6.17;;;2.00;;
82028;SDS011;71590;52.216;13.448;2024-02-04T13:54:56;5.47;;;1.90;;
82028;SDS011;71590;52.216;13.448;2024-02-04T13:57:22;5.50;;;1.97;;
82028;SDS011;71590;52.216;13.448;2024-02-04T13:59:49;4.10;;;1.90;;
82028;SDS011;71590;52.216;13.448;2024-02-04T14:02:15;5.27;;;1.57;;
82028;SDS011;71590;52.216;13.448;2024-02-04T14:04:42;2.70;;;1.87;;
82028;SDS011;71590;52.216;13.448;2024-02-04T14:07:09;9.67;;;2.00;;
82028;SDS011;71590;52.216;13.448;2024-02-04T14:09:36;4.70;;;1.90;;
82028;SDS011;71590;52.216;13.448;2024-02-04T14:12:02;7.83;;;2.43;;
82028;SDS011;71590;52.216;13.448;2024-02-04T14:14:31;5.53;;;1.77;;
82028;SDS011;71590;52.216;13.448;2024-02-04T14:16:57;5.50;;;2.33;;
82028;SDS011;71590;52.216;13.448;2024-02-04T14:19:24;7.20;;;2.07;;
82028;SDS011;71590;52.216;13.448;2024-02-04T14:21:50;6.87;;;1.80;;
82028;SDS011;71590;52.216;13.448;2024-02-04T14:24:17;4.73;;;1.90;;
82028;SDS011;71590;52.216;13.448;2024-02-04T14:26:43;6.10;;;1.90;;
82028;SDS011;71590;52.216;13.448;2024-02-04T14:29:10;3.30;;;1.70;;
82028;SDS011;71590;52.216;13.448;2024-02-04T14:31:36;5.70;;;2.00;;
82028;SDS011;71590;52.216;13.448;2024-02-04T14:34:03;4.73;;;1.70;;
82028;SDS011;71590;52.216;13.448;2024-02-04T14:36:29;3.97;;;1.80;;
82028;SDS011;71590;52.216;13.448;2024-02-04T14:38:56;3.67;;;2.00;;